sensor_id;sensor_type;location;lat;lon;timestamp;P1;durP1;ratioP1;P2;durP2;ratioP2
33802;SDS011;20110;53.120;5.786;2022-09-06T00:00:36;4.60;;;3.70;;
33802;SDS011;20110;53.120;5.786;2022-09-06T00:03:03;5.68;;;3.60;;
33802;SDS011;20110;53.120;5.786;2022-09-06T00:05:30;6.30;;;3.92;;
33802;SDS011;20110;53.120;5.786;2022-09-06T00:08:04;5.22;;;3.50;;
33802;SDS011;20110;53.120;5.786;2022-09-06T00:10:30;9.30;;;4.10;;
33802;SDS011;20110;53.120;5.786;2022-09-06T00:13:01;5.18;;;3.70;;
33802;SDS011;20110;53.120;5.786;2022-09-06T00:15:30;12.18;;;4.75;;
33802;SDS011;20110;53.120;5.786;2022-09-06T00:17:58;4.82;;;3.80;;
33802;SDS011;20110;53.120;5.786;2022-09-06T00:20:26;5.95;;;4.32;;
33802;SDS011;20110;53.120;5.786;2022-09-06T00:23:00;7.00;;;4.47;;
33802;SDS011;20110;53.120;5.786;2022-09-06T00:25:29;8.20;;;4.15;;
33802;SDS011;20110;53.120;5.786;2022-09-06T00:27:56;7.15;;;4.63;;
33802;SDS011;20110;53.120;5.786;2022-09-06T00:30:25;7.93;;;4.63;;
33802;SDS011;20110;53.120;5.786;2022-09-06T00:32:53;4.88;;;4.38;;
33802;SDS011;20110;53.120;5.786;2022-09-06T00:35:20;4.82;;;4.35;;
33802;SDS011;20110;53.120;5.786;2022-09-06T00:37:55;8.15;;;4.57;;
33802;SDS011;20110;53.120;5.786;2022-09-06T00:40:27;6.03;;;4.25;;
33802;SDS011;20110;53.120;5.786;2022-09-06T00:42:57;4.78;;;4.28;;
33802;SDS011;20110;53.120;5.786;2022-09-06T00:45:23;6.57;;;4.88;;
33802;SDS011;20110;53.120;5.786;2022-09-06T00:47:51;8.45;;;5.13;;
33802;SDS011;20110;53.120;5.786;2022-09-06T00:50:18;5.07;;;4.63;;
33802;SDS011;20110;53.120;5.786;2022-09-06T00:52:47;6.18;;;4.80;;
33802;SDS011;20110;53.120;5.786;2022-09-06T00:55:16;5.97;;;4.50;;
33802;SDS011;20110;53.120;5.786;2022-09-06T00:57:44;5.97;;;4.55;;
33802;SDS011;20110;53.120;5.786;2022-09-06T01:00:15;10.65;;;4.57;;
33802;SDS011;20110;53.120;5.786;2022-09-06T01:02:43;10.48;;;4.13;;
33802;SDS011;20110;53.120;5.786;2022-09-06T01:05:10;5.22;;;4.78;;
33802;SDS011;20110;53.120;5.786;2022-09-06T01:16:26;6.88;;;4.75;;
33802;SDS011;20110;53.120;5.786;2022-09-06T01:28:32;7.05;;;4.90;;
33802;SDS011;20110;53.120;5.786;2022-09-06T01:36:35;14.20;;;5.55;;
33802;SDS011;20110;53.120;5.786;2022-09-06T01:39:29;9.05;;;5.30;;
33802;SDS011;20110;53.120;5.786;2022-09-06T01:41:57;15.88;;;5.60;;
33802;SDS011;20110;53.120;5.786;2022-09-06T01:44:32;6.05;;;5.28;;
33802;SDS011;20110;53.120;5.786;2022-09-06T01:47:04;12.95;;;5.95;;
33802;SDS011;20110;53.120;5.786;2022-09-06T01:49:53;7.22;;;4.80;;
33802;SDS011;20110;53.120;5.786;2022-09-06T02:04:02;6.30;;;5.68;;
33802;SDS011;20110;53.120;5.786;2022-09-06T02:07:02;6.88;;;5.20;;
33802;SDS011;20110;53.120;5.786;2022-09-06T02:09:44;7.35;;;5.75;;
33802;SDS011;20110;53.120;5.786;2022-09-06T02:12:41;5.32;;;4.70;;
33802;SDS011;20110;53.120;5.786;2022-09-06T02:15:15;9.77;;;5.45;;
33802;SDS011;20110;53.120;5.786;2022-09-06T02:18:17;11.95;;;4.78;;
33802;SDS011;20110;53.120;5.786;2022-09-06T02:23:21;9.48;;;5.28;;
33802;SDS011;20110;53.120;5.786;2022-09-06T02:25:52;10.02;;;4.85;;
33802;SDS011;20110;53.120;5.786;2022-09-06T02:28:45;20.20;;;5.65;;
33802;SDS011;20110;53.120;5.786;2022-09-06T02:31:14;13.63;;;6.60;;
33802;SDS011;20110;53.120;5.786;2022-09-06T02:33:45;10.10;;;5.50;;
33802;SDS011;20110;53.120;5.786;2022-09-06T02:36:14;6.00;;;5.50;;
33802;SDS011;20110;53.120;5.786;2022-09-06T02:38:40;10.15;;;5.22;;
33802;SDS011;20110;53.120;5.786;2022-09-06T02:41:08;14.40;;;5.53;;
33802;SDS011;20110;53.120;5.786;2022-09-06T02:43:36;7.00;;;5.47;;
33802;SDS011;20110;53.120;5.786;2022-09-06T02:46:02;6.10;;;5.50;;
33802;SDS011;20110;53.120;5.786;2022-09-06T02:48:27;6.07;;;5.47;;
33802;SDS011;20110;53.120;5.786;2022-09-06T02:50:53;5.88;;;5.35;;
33802;SDS011;20110;53.120;5.786;2022-09-06T02:53:19;5.82;;;4.90;;
33802;SDS011;20110;53.120;5.786;2022-09-06T02:55:45;10.38;;;5.90;;
33802;SDS011;20110;53.120;5.786;2022-09-06T02:58:13;12.13;;;6.28;;
33802;SDS011;20110;53.120;5.786;2022-09-06T03:00:40;8.00;;;5.82;;
33802;SDS011;20110;53.120;5.786;2022-09-06T03:03:06;8.68;;;6.07;;
33802;SDS011;20110;53.120;5.786;2022-09-06T03:05:32;8.27;;;6.13;;
33802;SDS011;20110;53.120;5.786;2022-09-06T03:07:58;6.57;;;6.03;;
33802;SDS011;20110;53.120;5.786;2022-09-06T03:10:24;7.15;;;6.45;;
33802;SDS011;20110;53.120;5.786;2022-09-06T03:12:50;7.05;;;6.38;;
33802;SDS011;20110;53.120;5.786;2022-09-06T03:15:17;7.20;;;6.50;;
33802;SDS011;20110;53.120;5.786;2022-09-06T03:17:43;17.00;;;6.50;;
33802;SDS011;20110;53.120;5.786;2022-09-06T03:20:09;13.90;;;6.75;;
33802;SDS011;20110;53.120;5.786;2022-09-06T03:22:37;7.35;;;6.07;;
33802;SDS011;20110;53.120;5.786;2022-09-06T03:25:04;12.32;;;6.32;;
33802;SDS011;20110;53.120;5.786;2022-09-06T03:27:31;9.93;;;6.47;;
33802;SDS011;20110;53.120;5.786;2022-09-06T03:29:58;10.13;;;6.60;;
33802;SDS011;20110;53.120;5.786;2022-09-06T03:32:23;7.85;;;6.55;;
33802;SDS011;20110;53.120;5.786;2022-09-06T03:34:49;8.93;;;6.25;;
33802;SDS011;20110;53.120;5.786;2022-09-06T03:37:15;7.68;;;6.88;;
33802;SDS011;20110;53.120;5.786;2022-09-06T03:39:43;7.43;;;6.47;;
33802;SDS011;20110;53.120;5.786;2022-09-06T03:42:09;6.90;;;6.20;;
33802;SDS011;20110;53.120;5.786;2022-09-06T03:44:35;7.25;;;6.65;;
33802;SDS011;20110;53.120;5.786;2022-09-06T03:47:01;7.07;;;6.38;;
33802;SDS011;20110;53.120;5.786;2022-09-06T03:49:28;20.05;;;5.97;;
33802;SDS011;20110;53.120;5.786;2022-09-06T03:51:54;7.30;;;6.32;;
33802;SDS011;20110;53.120;5.786;2022-09-06T03:54:19;6.82;;;6.07;;
33802;SDS011;20110;53.120;5.786;2022-09-06T03:56:45;9.43;;;6.50;;
33802;SDS011;20110;53.120;5.786;2022-09-06T03:59:11;7.00;;;6.30;;
33802;SDS011;20110;53.120;5.786;2022-09-06T04:01:37;8.70;;;7.18;;
33802;SDS011;20110;53.120;5.786;2022-09-06T04:04:02;7.65;;;6.90;;
33802;SDS011;20110;53.120;5.786;2022-09-06T04:06:28;8.25;;;6.78;;
33802;SDS011;20110;53.120;5.786;2022-09-06T04:08:54;8.00;;;7.18;;
33802;SDS011;20110;53.120;5.786;2022-09-06T04:11:20;8.98;;;7.93;;
33802;SDS011;20110;53.120;5.786;2022-09-06T04:13:45;9.10;;;7.70;;
33802;SDS011;20110;53.120;5.786;2022-09-06T04:16:11;10.88;;;8.30;;
33802;SDS011;20110;53.120;5.786;2022-09-06T04:18:37;9.05;;;8.13;;
33802;SDS011;20110;53.120;5.786;2022-09-06T04:21:03;8.98;;;7.60;;
33802;SDS011;20110;53.120;5.786;2022-09-06T04:23:29;12.23;;;9.05;;
33802;SDS011;20110;53.120;5.786;2022-09-06T04:25:55;11.88;;;9.82;;
33802;SDS011;20110;53.120;5.786;2022-09-06T04:28:23;14.82;;;9.95;;
33802;SDS011;20110;53.120;5.786;2022-09-06T04:30:59;12.13;;;9.95;;
33802;SDS011;20110;53.120;5.786;2022-09-06T04:33:28;13.43;;;9.48;;
33802;SDS011;20110;53.120;5.786;2022-09-06T04:35:56;11.05;;;9.80;;
33802;SDS011;20110;53.120;5.786;2022-09-06T04:38:25;11.27;;;9.55;;
33802;SDS011;20110;53.120;5.786;2022-09-06T04:40:53;15.00;;;10.77;;
33802;SDS011;20110;53.120;5.786;2022-09-06T04:43:20;12.98;;;10.60;;
33802;SDS011;20110;53.120;5.786;2022-09-06T04:45:47;11.48;;;10.23;;
33802;SDS011;20110;53.120;5.786;2022-09-06T04:48:13;12.90;;;10.95;;
33802;SDS011;20110;53.120;5.786;2022-09-06T04:50:39;17.48;;;10.70;;
33802;SDS011;20110;53.120;5.786;2022-09-06T04:53:05;12.07;;;10.88;;
33802;SDS011;20110;53.120;5.786;2022-09-06T04:55:31;14.48;;;11.82;;
33802;SDS011;20110;53.120;5.786;2022-09-06T04:57:58;18.60;;;11.65;;
33802;SDS011;20110;53.120;5.786;2022-09-06T05:00:29;17.15;;;11.85;;
33802;SDS011;20110;53.120;5.786;2022-09-06T05:02:58;13.65;;;11.45;;
33802;SDS011;20110;53.120;5.786;2022-09-06T05:05:23;15.07;;;10.30;;
33802;SDS011;20110;53.120;5.786;2022-09-06T05:07:51;13.48;;;10.90;;
33802;SDS011;20110;53.120;5.786;2022-09-06T05:10:21;12.77;;;10.98;;
33802;SDS011;20110;53.120;5.786;2022-09-06T05:12:49;12.45;;;11.25;;
33802;SDS011;20110;53.120;5.786;2022-09-06T05:15:17;17.02;;;12.35;;
33802;SDS011;20110;53.120;5.786;2022-09-06T05:17:45;15.63;;;12.00;;
33802;SDS011;20110;53.120;5.786;2022-09-06T05:20:11;20.58;;;12.40;;
33802;SDS011;20110;53.120;5.786;2022-09-06T05:22:38;12.75;;;11.45;;
33802;SDS011;20110;53.120;5.786;2022-09-06T05:25:04;14.52;;;11.75;;
33802;SDS011;20110;53.120;5.786;2022-09-06T05:27:32;18.73;;;11.65;;
33802;SDS011;20110;53.120;5.786;2022-09-06T05:29:57;16.52;;;11.32;;
33802;SDS011;20110;53.120;5.786;2022-09-06T05:32:23;13.02;;;11.30;;
33802;SDS011;20110;53.120;5.786;2022-09-06T05:34:49;14.93;;;11.48;;
33802;SDS011;20110;53.120;5.786;2022-09-06T05:37:15;16.35;;;11.98;;
33802;SDS011;20110;53.120;5.786;2022-09-06T05:39:40;13.85;;;10.77;;
33802;SDS011;20110;53.120;5.786;2022-09-06T05:42:06;17.50;;;11.80;;
33802;SDS011;20110;53.120;5.786;2022-09-06T05:44:35;20.98;;;12.05;;
33802;SDS011;20110;53.120;5.786;2022-09-06T05:47:01;23.17;;;11.82;;
33802;SDS011;20110;53.120;5.786;2022-09-06T05:49:28;12.77;;;11.60;;
33802;SDS011;20110;53.120;5.786;2022-09-06T05:51:55;19.10;;;12.40;;
33802;SDS011;20110;53.120;5.786;2022-09-06T05:54:21;13.18;;;11.70;;
33802;SDS011;20110;53.120;5.786;2022-09-06T05:56:47;14.73;;;11.90;;
33802;SDS011;20110;53.120;5.786;2022-09-06T05:59:13;14.73;;;12.93;;
33802;SDS011;20110;53.120;5.786;2022-09-06T06:01:46;16.38;;;10.98;;
33802;SDS011;20110;53.120;5.786;2022-09-06T06:04:17;20.05;;;12.18;;
33802;SDS011;20110;53.120;5.786;2022-09-06T06:06:43;14.40;;;12.68;;
33802;SDS011;20110;53.120;5.786;2022-09-06T06:09:11;22.60;;;12.10;;
33802;SDS011;20110;53.120;5.786;2022-09-06T06:11:38;17.55;;;11.77;;
33802;SDS011;20110;53.120;5.786;2022-09-06T06:14:04;15.65;;;11.85;;
33802;SDS011;20110;53.120;5.786;2022-09-06T06:16:30;20.67;;;12.23;;
33802;SDS011;20110;53.120;5.786;2022-09-06T06:18:56;17.45;;;10.98;;
33802;SDS011;20110;53.120;5.786;2022-09-06T06:21:23;16.02;;;11.73;;
33802;SDS011;20110;53.120;5.786;2022-09-06T06:23:56;13.30;;;11.60;;
33802;SDS011;20110;53.120;5.786;2022-09-06T06:26:25;16.42;;;11.30;;
33802;SDS011;20110;53.120;5.786;2022-09-06T06:28:55;15.60;;;11.80;;
33802;SDS011;20110;53.120;5.786;2022-09-06T06:31:25;12.35;;;10.80;;
33802;SDS011;20110;53.120;5.786;2022-09-06T06:33:55;13.60;;;11.63;;
33802;SDS011;20110;53.120;5.786;2022-09-06T06:36:22;16.20;;;11.10;;
33802;SDS011;20110;53.120;5.786;2022-09-06T06:38:54;15.35;;;11.65;;
33802;SDS011;20110;53.120;5.786;2022-09-06T06:41:22;13.38;;;10.45;;
33802;SDS011;20110;53.120;5.786;2022-09-06T06:43:51;16.95;;;11.10;;
33802;SDS011;20110;53.120;5.786;2022-09-06T06:46:19;13.98;;;11.68;;
33802;SDS011;20110;53.120;5.786;2022-09-06T06:48:48;13.75;;;10.68;;
33802;SDS011;20110;53.120;5.786;2022-09-06T06:51:15;15.27;;;11.90;;
33802;SDS011;20110;53.120;5.786;2022-09-06T06:53:44;16.38;;;11.50;;
33802;SDS011;20110;53.120;5.786;2022-09-06T06:58:41;12.45;;;10.80;;
33802;SDS011;20110;53.120;5.786;2022-09-06T07:01:08;12.25;;;11.02;;
33802;SDS011;20110;53.120;5.786;2022-09-06T07:03:34;19.95;;;11.43;;
33802;SDS011;20110;53.120;5.786;2022-09-06T07:06:01;15.25;;;11.88;;
33802;SDS011;20110;53.120;5.786;2022-09-06T07:08:30;16.23;;;11.13;;
33802;SDS011;20110;53.120;5.786;2022-09-06T07:10:57;12.07;;;10.73;;
33802;SDS011;20110;53.120;5.786;2022-09-06T07:13:23;17.35;;;11.63;;
33802;SDS011;20110;53.120;5.786;2022-09-06T07:15:49;19.27;;;11.18;;
33802;SDS011;20110;53.120;5.786;2022-09-06T07:18:15;12.90;;;11.60;;
33802;SDS011;20110;53.120;5.786;2022-09-06T07:20:42;11.70;;;10.50;;
33802;SDS011;20110;53.120;5.786;2022-09-06T07:23:08;13.15;;;11.60;;
33802;SDS011;20110;53.120;5.786;2022-09-06T07:25:34;23.63;;;11.40;;
33802;SDS011;20110;53.120;5.786;2022-09-06T07:28:04;21.05;;;12.60;;
33802;SDS011;20110;53.120;5.786;2022-09-06T07:30:33;13.32;;;11.50;;
33802;SDS011;20110;53.120;5.786;2022-09-06T07:33:03;14.52;;;12.07;;
33802;SDS011;20110;53.120;5.786;2022-09-06T07:35:32;13.60;;;10.77;;
33802;SDS011;20110;53.120;5.786;2022-09-06T07:37:58;12.85;;;11.43;;
33802;SDS011;20110;53.120;5.786;2022-09-06T07:40:27;14.07;;;11.50;;
33802;SDS011;20110;53.120;5.786;2022-09-06T07:42:58;15.98;;;12.70;;
33802;SDS011;20110;53.120;5.786;2022-09-06T07:45:24;12.55;;;11.20;;
33802;SDS011;20110;53.120;5.786;2022-09-06T07:47:57;17.35;;;10.98;;
33802;SDS011;20110;53.120;5.786;2022-09-06T07:50:26;14.82;;;11.60;;
33802;SDS011;20110;53.120;5.786;2022-09-06T07:52:54;14.05;;;12.43;;
33802;SDS011;20110;53.120;5.786;2022-09-06T07:55:29;18.95;;;12.82;;
33802;SDS011;20110;53.120;5.786;2022-09-06T07:57:54;15.57;;;11.30;;
33802;SDS011;20110;53.120;5.786;2022-09-06T08:00:20;13.30;;;11.93;;
33802;SDS011;20110;53.120;5.786;2022-09-06T08:02:46;19.80;;;11.10;;
33802;SDS011;20110;53.120;5.786;2022-09-06T08:05:11;18.23;;;11.82;;
33802;SDS011;20110;53.120;5.786;2022-09-06T08:07:37;12.80;;;11.43;;
33802;SDS011;20110;53.120;5.786;2022-09-06T08:10:03;22.45;;;11.90;;
33802;SDS011;20110;53.120;5.786;2022-09-06T08:12:29;14.10;;;11.50;;
33802;SDS011;20110;53.120;5.786;2022-09-06T08:14:55;13.40;;;12.00;;
33802;SDS011;20110;53.120;5.786;2022-09-06T08:17:21;12.32;;;10.52;;
33802;SDS011;20110;53.120;5.786;2022-09-06T08:19:46;14.13;;;11.75;;
33802;SDS011;20110;53.120;5.786;2022-09-06T08:22:13;15.25;;;11.40;;
33802;SDS011;20110;53.120;5.786;2022-09-06T08:24:39;12.02;;;10.75;;
33802;SDS011;20110;53.120;5.786;2022-09-06T08:27:05;12.90;;;11.13;;
33802;SDS011;20110;53.120;5.786;2022-09-06T08:29:32;11.80;;;10.60;;
33802;SDS011;20110;53.120;5.786;2022-09-06T08:31:59;13.77;;;12.15;;
33802;SDS011;20110;53.120;5.786;2022-09-06T08:34:25;13.10;;;10.50;;
33802;SDS011;20110;53.120;5.786;2022-09-06T08:36:51;13.32;;;11.70;;
33802;SDS011;20110;53.120;5.786;2022-09-06T08:39:16;12.98;;;11.57;;
33802;SDS011;20110;53.120;5.786;2022-09-06T08:41:57;16.45;;;11.68;;
33802;SDS011;20110;53.120;5.786;2022-09-06T08:44:40;15.68;;;11.68;;
33802;SDS011;20110;53.120;5.786;2022-09-06T08:47:13;13.45;;;10.90;;
33802;SDS011;20110;53.120;5.786;2022-09-06T08:49:49;14.05;;;11.52;;
33802;SDS011;20110;53.120;5.786;2022-09-06T08:52:36;18.00;;;10.50;;
33802;SDS011;20110;53.120;5.786;2022-09-06T08:55:25;12.02;;;10.93;;
33802;SDS011;20110;53.120;5.786;2022-09-06T09:01:02;14.00;;;11.05;;
33802;SDS011;20110;53.120;5.786;2022-09-06T09:03:34;18.58;;;11.73;;
33802;SDS011;20110;53.120;5.786;2022-09-06T09:06:02;11.93;;;10.73;;
33802;SDS011;20110;53.120;5.786;2022-09-06T09:08:34;11.73;;;10.63;;
33802;SDS011;20110;53.120;5.786;2022-09-06T09:11:29;14.30;;;11.07;;
33802;SDS011;20110;53.120;5.786;2022-09-06T09:16:54;15.18;;;10.02;;
33802;SDS011;20110;53.120;5.786;2022-09-06T09:19:29;13.80;;;10.02;;
33802;SDS011;20110;53.120;5.786;2022-09-06T09:21:57;16.40;;;10.45;;
33802;SDS011;20110;53.120;5.786;2022-09-06T09:24:23;12.73;;;8.98;;
33802;SDS011;20110;53.120;5.786;2022-09-06T09:26:50;12.40;;;9.88;;
33802;SDS011;20110;53.120;5.786;2022-09-06T09:29:29;12.63;;;10.20;;
33802;SDS011;20110;53.120;5.786;2022-09-06T09:31:55;13.70;;;9.70;;
33802;SDS011;20110;53.120;5.786;2022-09-06T09:39:53;11.07;;;9.77;;
33802;SDS011;20110;53.120;5.786;2022-09-06T09:42:31;14.27;;;8.88;;
33802;SDS011;20110;53.120;5.786;2022-09-06T09:45:02;10.45;;;8.52;;
33802;SDS011;20110;53.120;5.786;2022-09-06T09:47:55;10.80;;;8.82;;
33802;SDS011;20110;53.120;5.786;2022-09-06T09:52:51;8.38;;;7.55;;
33802;SDS011;20110;53.120;5.786;2022-09-06T09:55:20;8.63;;;7.78;;
33802;SDS011;20110;53.120;5.786;2022-09-06T09:57:49;9.85;;;7.90;;
33802;SDS011;20110;53.120;5.786;2022-09-06T10:00:37;8.63;;;7.80;;
33802;SDS011;20110;53.120;5.786;2022-09-06T10:03:13;9.60;;;7.45;;
33802;SDS011;20110;53.120;5.786;2022-09-06T10:05:53;7.88;;;7.20;;
33802;SDS011;20110;53.120;5.786;2022-09-06T10:08:23;13.23;;;7.93;;
33802;SDS011;20110;53.120;5.786;2022-09-06T10:10:51;7.88;;;7.07;;
33802;SDS011;20110;53.120;5.786;2022-09-06T10:13:25;7.47;;;6.85;;
33802;SDS011;20110;53.120;5.786;2022-09-06T10:15:54;7.00;;;6.38;;
33802;SDS011;20110;53.120;5.786;2022-09-06T10:21:14;8.32;;;7.47;;
33802;SDS011;20110;53.120;5.786;2022-09-06T10:26:45;9.55;;;8.60;;
33802;SDS011;20110;53.120;5.786;2022-09-06T10:29:30;11.55;;;8.90;;
33802;SDS011;20110;53.120;5.786;2022-09-06T10:32:13;12.70;;;8.73;;
33802;SDS011;20110;53.120;5.786;2022-09-06T10:40:55;5.95;;;5.45;;
33802;SDS011;20110;53.120;5.786;2022-09-06T10:43:26;6.05;;;5.47;;
33802;SDS011;20110;53.120;5.786;2022-09-06T10:46:15;11.55;;;6.93;;
33802;SDS011;20110;53.120;5.786;2022-09-06T10:48:45;8.18;;;6.50;;
33802;SDS011;20110;53.120;5.786;2022-09-06T10:56:42;11.60;;;6.95;;
33802;SDS011;20110;53.120;5.786;2022-09-06T10:59:33;7.18;;;6.57;;
33802;SDS011;20110;53.120;5.786;2022-09-06T11:10:58;10.07;;;7.88;;
33802;SDS011;20110;53.120;5.786;2022-09-06T11:13:34;8.68;;;7.95;;
33802;SDS011;20110;53.120;5.786;2022-09-06T11:16:11;9.18;;;7.60;;
33802;SDS011;20110;53.120;5.786;2022-09-06T11:21:31;7.90;;;7.20;;
33802;SDS011;20110;53.120;5.786;2022-09-06T11:24:12;8.07;;;7.28;;
33802;SDS011;20110;53.120;5.786;2022-09-06T11:29:31;7.68;;;6.97;;
33802;SDS011;20110;53.120;5.786;2022-09-06T11:31:59;9.80;;;6.72;;
33802;SDS011;20110;53.120;5.786;2022-09-06T11:34:38;7.43;;;6.00;;
33802;SDS011;20110;53.120;5.786;2022-09-06T11:37:05;9.93;;;6.15;;
33802;SDS011;20110;53.120;5.786;2022-09-06T11:39:39;5.65;;;5.10;;
33802;SDS011;20110;53.120;5.786;2022-09-06T11:55:45;5.28;;;4.75;;
33802;SDS011;20110;53.120;5.786;2022-09-06T12:06:16;4.68;;;4.28;;
33802;SDS011;20110;53.120;5.786;2022-09-06T12:09:36;4.32;;;3.95;;
33802;SDS011;20110;53.120;5.786;2022-09-06T12:14:34;4.07;;;3.78;;
33802;SDS011;20110;53.120;5.786;2022-09-06T12:19:49;6.18;;;3.67;;
33802;SDS011;20110;53.120;5.786;2022-09-06T12:25:03;5.53;;;3.50;;
33802;SDS011;20110;53.120;5.786;2022-09-06T12:28:03;3.83;;;3.50;;
33802;SDS011;20110;53.120;5.786;2022-09-06T12:30:35;4.60;;;3.08;;
33802;SDS011;20110;53.120;5.786;2022-09-06T12:41:51;3.47;;;3.15;;
33802;SDS011;20110;53.120;5.786;2022-09-06T12:47:13;3.90;;;3.60;;
33802;SDS011;20110;53.120;5.786;2022-09-06T12:52:50;3.55;;;3.25;;
33802;SDS011;20110;53.120;5.786;2022-09-06T12:55:29;5.38;;;3.30;;
33802;SDS011;20110;53.120;5.786;2022-09-06T12:58:06;3.63;;;2.08;;
33802;SDS011;20110;53.120;5.786;2022-09-06T13:00:39;2.72;;;2.17;;
33802;SDS011;20110;53.120;5.786;2022-09-06T13:03:24;2.42;;;2.05;;
33802;SDS011;20110;53.120;5.786;2022-09-06T13:06:11;3.13;;;2.42;;
33802;SDS011;20110;53.120;5.786;2022-09-06T13:08:48;2.00;;;1.88;;
33802;SDS011;20110;53.120;5.786;2022-09-06T13:11:37;3.72;;;2.30;;
33802;SDS011;20110;53.120;5.786;2022-09-06T13:14:20;5.13;;;1.77;;
33802;SDS011;20110;53.120;5.786;2022-09-06T13:16:52;2.30;;;2.10;;
33802;SDS011;20110;53.120;5.786;2022-09-06T13:19:35;2.15;;;1.90;;
33802;SDS011;20110;53.120;5.786;2022-09-06T13:22:05;3.05;;;1.77;;
33802;SDS011;20110;53.120;5.786;2022-09-06T13:27:26;2.72;;;1.75;;
33802;SDS011;20110;53.120;5.786;2022-09-06T13:30:05;5.28;;;2.33;;
33802;SDS011;20110;53.120;5.786;2022-09-06T13:32:35;5.40;;;2.35;;
33802;SDS011;20110;53.120;5.786;2022-09-06T13:35:10;3.58;;;2.72;;
33802;SDS011;20110;53.120;5.786;2022-09-06T13:40:55;3.75;;;1.92;;
33802;SDS011;20110;53.120;5.786;2022-09-06T13:43:22;2.88;;;2.38;;
33802;SDS011;20110;53.120;5.786;2022-09-06T13:46:02;5.80;;;2.60;;
33802;SDS011;20110;53.120;5.786;2022-09-06T13:48:34;2.53;;;2.33;;
33802;SDS011;20110;53.120;5.786;2022-09-06T13:51:02;6.80;;;2.75;;
33802;SDS011;20110;53.120;5.786;2022-09-06T13:53:30;4.70;;;1.95;;
33802;SDS011;20110;53.120;5.786;2022-09-06T13:55:57;2.13;;;1.92;;
33802;SDS011;20110;53.120;5.786;2022-09-06T13:58:23;2.42;;;2.22;;
33802;SDS011;20110;53.120;5.786;2022-09-06T14:00:50;4.25;;;2.33;;
33802;SDS011;20110;53.120;5.786;2022-09-06T14:03:23;5.82;;;2.80;;
33802;SDS011;20110;53.120;5.786;2022-09-06T14:05:56;2.30;;;2.03;;
33802;SDS011;20110;53.120;5.786;2022-09-06T14:08:24;3.80;;;2.30;;
33802;SDS011;20110;53.120;5.786;2022-09-06T14:10:51;4.13;;;2.60;;
33802;SDS011;20110;53.120;5.786;2022-09-06T14:13:17;5.13;;;2.58;;
33802;SDS011;20110;53.120;5.786;2022-09-06T14:15:45;4.57;;;3.10;;
33802;SDS011;20110;53.120;5.786;2022-09-06T14:18:13;5.53;;;2.80;;
33802;SDS011;20110;53.120;5.786;2022-09-06T14:20:40;5.13;;;2.88;;
33802;SDS011;20110;53.120;5.786;2022-09-06T14:23:07;6.55;;;3.78;;
33802;SDS011;20110;53.120;5.786;2022-09-06T14:25:34;9.07;;;3.55;;
33802;SDS011;20110;53.120;5.786;2022-09-06T14:28:02;3.60;;;2.80;;
33802;SDS011;20110;53.120;5.786;2022-09-06T14:30:29;3.70;;;3.25;;
33802;SDS011;20110;53.120;5.786;2022-09-06T14:32:55;4.40;;;3.17;;
33802;SDS011;20110;53.120;5.786;2022-09-06T14:35:21;14.27;;;4.68;;
33802;SDS011;20110;53.120;5.786;2022-09-06T14:37:47;6.35;;;4.88;;
33802;SDS011;20110;53.120;5.786;2022-09-06T14:40:13;4.25;;;3.25;;
33802;SDS011;20110;53.120;5.786;2022-09-06T14:42:39;5.88;;;3.83;;
33802;SDS011;20110;53.120;5.786;2022-09-06T14:45:05;6.63;;;4.18;;
33802;SDS011;20110;53.120;5.786;2022-09-06T14:47:32;7.93;;;3.80;;
33802;SDS011;20110;53.120;5.786;2022-09-06T14:49:58;6.65;;;3.95;;
33802;SDS011;20110;53.120;5.786;2022-09-06T14:52:24;4.60;;;3.90;;
33802;SDS011;20110;53.120;5.786;2022-09-06T14:54:50;6.25;;;3.80;;
33802;SDS011;20110;53.120;5.786;2022-09-06T14:57:16;5.43;;;2.97;;
33802;SDS011;20110;53.120;5.786;2022-09-06T14:59:42;5.13;;;3.45;;
33802;SDS011;20110;53.120;5.786;2022-09-06T15:02:07;6.53;;;3.30;;
33802;SDS011;20110;53.120;5.786;2022-09-06T15:04:33;3.45;;;2.97;;
33802;SDS011;20110;53.120;5.786;2022-09-06T15:06:59;3.67;;;2.95;;
33802;SDS011;20110;53.120;5.786;2022-09-06T15:09:25;6.47;;;3.28;;
33802;SDS011;20110;53.120;5.786;2022-09-06T15:11:52;5.40;;;3.03;;
33802;SDS011;20110;53.120;5.786;2022-09-06T15:14:22;7.90;;;3.22;;
33802;SDS011;20110;53.120;5.786;2022-09-06T15:16:51;3.58;;;2.97;;
33802;SDS011;20110;53.120;5.786;2022-09-06T15:19:20;5.60;;;3.17;;
33802;SDS011;20110;53.120;5.786;2022-09-06T15:21:48;3.05;;;2.85;;
33802;SDS011;20110;53.120;5.786;2022-09-06T15:24:14;9.23;;;3.33;;
33802;SDS011;20110;53.120;5.786;2022-09-06T15:26:41;9.50;;;3.20;;
33802;SDS011;20110;53.120;5.786;2022-09-06T15:29:11;5.80;;;3.28;;
33802;SDS011;20110;53.120;5.786;2022-09-06T15:31:38;4.40;;;3.78;;
33802;SDS011;20110;53.120;5.786;2022-09-06T15:34:05;4.00;;;3.60;;
33802;SDS011;20110;53.120;5.786;2022-09-06T15:36:33;9.77;;;4.30;;
33802;SDS011;20110;53.120;5.786;2022-09-06T15:39:00;6.75;;;4.47;;
33802;SDS011;20110;53.120;5.786;2022-09-06T15:41:29;11.00;;;3.83;;
33802;SDS011;20110;53.120;5.786;2022-09-06T15:44:01;4.72;;;3.75;;
33802;SDS011;20110;53.120;5.786;2022-09-06T15:49:06;8.35;;;3.90;;
33802;SDS011;20110;53.120;5.786;2022-09-06T15:51:33;13.43;;;5.35;;
33802;SDS011;20110;53.120;5.786;2022-09-06T15:54:02;5.22;;;4.78;;
33802;SDS011;20110;53.120;5.786;2022-09-06T15:56:29;5.82;;;4.28;;
33802;SDS011;20110;53.120;5.786;2022-09-06T15:58:55;5.40;;;4.90;;
33802;SDS011;20110;53.120;5.786;2022-09-06T16:01:22;4.93;;;4.25;;
33802;SDS011;20110;53.120;5.786;2022-09-06T16:03:54;5.25;;;4.75;;
33802;SDS011;20110;53.120;5.786;2022-09-06T16:06:37;6.00;;;4.60;;
33802;SDS011;20110;53.120;5.786;2022-09-06T16:09:09;7.53;;;4.70;;
33802;SDS011;20110;53.120;5.786;2022-09-06T16:11:44;5.85;;;4.03;;
33802;SDS011;20110;53.120;5.786;2022-09-06T16:14:11;7.43;;;4.10;;
33802;SDS011;20110;53.120;5.786;2022-09-06T16:16:40;7.28;;;4.68;;
33802;SDS011;20110;53.120;5.786;2022-09-06T16:19:07;6.20;;;3.75;;
33802;SDS011;20110;53.120;5.786;2022-09-06T16:21:35;4.20;;;3.80;;
33802;SDS011;20110;53.120;5.786;2022-09-06T16:24:04;5.30;;;3.70;;
33802;SDS011;20110;53.120;5.786;2022-09-06T16:26:42;6.82;;;2.88;;
33802;SDS011;20110;53.120;5.786;2022-09-06T16:29:14;4.45;;;3.38;;
33802;SDS011;20110;53.120;5.786;2022-09-06T16:31:42;6.50;;;3.00;;
33802;SDS011;20110;53.120;5.786;2022-09-06T16:34:08;4.00;;;2.63;;
33802;SDS011;20110;53.120;5.786;2022-09-06T16:36:35;4.07;;;2.65;;
33802;SDS011;20110;53.120;5.786;2022-09-06T16:39:02;7.82;;;2.60;;
33802;SDS011;20110;53.120;5.786;2022-09-06T16:41:35;7.57;;;2.40;;
33802;SDS011;20110;53.120;5.786;2022-09-06T16:44:05;10.52;;;2.67;;
33802;SDS011;20110;53.120;5.786;2022-09-06T16:46:49;10.85;;;3.72;;
33802;SDS011;20110;53.120;5.786;2022-09-06T16:49:16;7.43;;;3.00;;
33802;SDS011;20110;53.120;5.786;2022-09-06T16:51:43;7.80;;;4.00;;
33802;SDS011;20110;53.120;5.786;2022-09-06T16:54:10;7.65;;;4.47;;
33802;SDS011;20110;53.120;5.786;2022-09-06T16:56:38;8.70;;;4.97;;
33802;SDS011;20110;53.120;5.786;2022-09-06T16:59:05;13.48;;;5.82;;
33802;SDS011;20110;53.120;5.786;2022-09-06T17:01:34;11.52;;;6.93;;
33802;SDS011;20110;53.120;5.786;2022-09-06T17:04:02;11.65;;;7.72;;
33802;SDS011;20110;53.120;5.786;2022-09-06T17:06:29;10.43;;;8.98;;
33802;SDS011;20110;53.120;5.786;2022-09-06T17:08:57;14.30;;;9.40;;
33802;SDS011;20110;53.120;5.786;2022-09-06T17:11:23;14.10;;;9.73;;
33802;SDS011;20110;53.120;5.786;2022-09-06T17:13:52;11.85;;;9.50;;